createdAt,value
2019-05-02T00:00:06.782Z,6.88
2019-05-02T00:01:06.775Z,6.85
2019-05-02T00:02:06.833Z,6.75
2019-05-02T00:03:06.765Z,6.72
2019-05-02T00:04:06.757Z,6.69
2019-05-02T00:05:06.751Z,6.81
2019-05-02T00:06:07.404Z,6.72
2019-05-02T00:07:06.743Z,6.74
2019-05-02T00:08:06.738Z,6.75
2019-05-02T00:09:09.224Z,6.67
2019-05-02T00:10:06.725Z,6.62
2019-05-02T00:11:06.715Z,6.67
2019-05-02T00:12:06.709Z,6.57
2019-05-02T00:13:06.701Z,6.60
2019-05-02T00:14:06.696Z,6.59
2019-05-02T00:15:06.691Z,6.69
2019-05-02T00:16:09.013Z,6.69
2019-05-02T00:17:06.676Z,6.60
2019-05-02T00:18:06.670Z,6.59
2019-05-02T00:19:12.068Z,6.62
2019-05-02T00:20:06.660Z,6.56
2019-05-02T00:21:06.653Z,6.56
2019-05-02T00:22:06.648Z,6.54
2019-05-02T00:23:06.645Z,6.57
2019-05-02T00:24:06.639Z,6.51
2019-05-02T00:25:06.633Z,6.51
2019-05-02T00:26:06.625Z,6.56
2019-05-02T00:27:06.622Z,6.62
2019-05-02T00:28:07.803Z,6.67
2019-05-02T00:29:06.617Z,6.69
2019-05-02T00:30:06.604Z,6.70
2019-05-02T00:31:07.390Z,6.69
2019-05-02T00:32:06.586Z,6.77
2019-05-02T00:33:06.587Z,6.92
2019-05-02T00:34:06.573Z,6.99
2019-05-02T00:35:06.566Z,7.05
2019-05-02T00:36:06.562Z,7.00
2019-05-02T00:37:06.561Z,7.05
2019-05-02T00:38:06.551Z,6.99
2019-05-02T00:39:09.527Z,7.07
2019-05-02T00:40:06.539Z,7.13
2019-05-02T00:41:06.536Z,7.17
2019-05-02T00:42:12.745Z,7.40
2019-05-02T00:43:06.605Z,7.39
2019-05-02T00:44:10.949Z,7.39
2019-05-02T00:45:06.518Z,7.45
2019-05-02T00:46:06.505Z,7.40
2019-05-02T00:47:10.969Z,7.43
2019-05-02T00:48:06.492Z,7.45
2019-05-02T00:49:06.484Z,7.70
2019-05-02T00:50:11.414Z,7.70
2019-05-02T00:51:06.474Z,7.73
2019-05-02T00:52:06.467Z,7.83
2019-05-02T00:53:07.245Z,8.10
2019-05-02T00:54:06.453Z,8.10
2019-05-02T00:55:06.456Z,8.05
2019-05-02T00:56:09.075Z,8.15
2019-05-02T00:57:06.438Z,8.09
2019-05-02T00:58:06.430Z,8.13
2019-05-02T00:59:07.460Z,8.12
2019-05-02T01:00:06.422Z,8.28
2019-05-02T01:01:06.417Z,8.48
2019-05-02T01:02:07.220Z,8.30
2019-05-02T01:03:06.402Z,8.28
2019-05-02T01:04:12.673Z,8.28
2019-05-02T01:05:06.399Z,8.28
2019-05-02T01:06:13.976Z,8.48
2019-05-02T01:07:06.385Z,8.56
2019-05-02T01:08:06.378Z,8.31
2019-05-02T01:09:10.994Z,8.34
2019-05-02T01:10:06.369Z,8.33
2019-05-02T01:11:06.363Z,8.31
2019-05-02T01:12:08.302Z,8.13
2019-05-02T01:13:06.355Z,8.24
2019-05-02T01:14:06.348Z,8.16
2019-05-02T01:15:08.350Z,8.26
2019-05-02T01:16:06.337Z,8.30
2019-05-02T01:17:06.324Z,8.38
2019-05-02T01:18:07.932Z,8.33
2019-05-02T01:19:06.313Z,8.10
2019-05-02T01:20:06.335Z,8.16
2019-05-02T01:21:06.304Z,8.26
2019-05-02T01:22:10.595Z,8.13
2019-05-02T01:23:06.295Z,8.06
2019-05-02T01:24:06.290Z,8.03
2019-05-02T01:25:06.281Z,8.10
2019-05-02T01:26:06.280Z,8.12
2019-05-02T01:27:06.551Z,8.12
2019-05-02T01:28:06.265Z,8.13
2019-05-02T01:29:06.259Z,8.34
2019-05-02T01:30:07.403Z,8.26
2019-05-02T01:31:06.250Z,8.13
2019-05-02T01:32:06.247Z,8.28
2019-05-02T01:33:06.730Z,8.19
2019-05-02T01:34:06.231Z,8.26
2019-05-02T01:35:06.224Z,8.23
2019-05-02T01:36:08.040Z,8.27
2019-05-02T01:37:06.213Z,8.27
2019-05-02T01:38:06.206Z,8.28
2019-05-02T01:39:07.594Z,8.10
2019-05-02T01:40:06.203Z,8.28
2019-05-02T01:41:06.196Z,8.20
2019-05-02T01:42:06.186Z,8.33
2019-05-02T01:43:06.182Z,8.38
2019-05-02T01:44:06.175Z,8.33
2019-05-02T01:45:06.867Z,8.28
2019-05-02T01:46:06.161Z,8.09
2019-05-02T01:47:06.160Z,8.10
2019-05-02T01:48:09.766Z,8.10
2019-05-02T01:49:06.146Z,8.15
2019-05-02T01:50:06.145Z,8.09
2019-05-02T01:51:10.190Z,8.12
2019-05-02T01:52:06.131Z,8.15
2019-05-02T01:53:06.127Z,8.13
2019-05-02T01:54:10.209Z,8.46
2019-05-02T01:55:06.119Z,8.30
2019-05-02T01:56:06.110Z,8.24
2019-05-02T01:57:08.713Z,8.37
2019-05-02T01:58:06.098Z,8.34
2019-05-02T01:59:06.117Z,8.13
2019-05-02T02:00:09.441Z,8.15
2019-05-02T02:01:06.085Z,8.28
2019-05-02T02:02:06.096Z,8.44
2019-05-02T02:03:09.159Z,8.46
2019-05-02T02:04:06.074Z,8.36
2019-05-02T02:05:06.057Z,8.45
2019-05-02T02:06:08.248Z,8.28
2019-05-02T02:07:06.059Z,8.38
2019-05-02T02:08:06.041Z,8.30
2019-05-02T02:09:08.357Z,8.24
2019-05-02T02:10:06.032Z,8.19
2019-05-02T02:11:06.028Z,8.30
2019-05-02T02:12:09.828Z,8.37
2019-05-02T02:13:06.025Z,8.28
2019-05-02T02:14:07.286Z,8.28
2019-05-02T02:15:06.006Z,8.53
2019-05-02T02:16:06.141Z,8.34
2019-05-02T02:17:10.108Z,8.37
2019-05-02T02:18:05.990Z,8.28
2019-05-02T02:19:05.978Z,8.27
2019-05-02T02:20:09.776Z,8.34
2019-05-02T02:21:05.967Z,8.13
2019-05-02T02:22:05.966Z,8.30
2019-05-02T02:23:10.204Z,8.33
2019-05-02T02:24:05.953Z,8.33
2019-05-02T02:25:05.950Z,8.26
2019-05-02T02:26:06.820Z,8.26
2019-05-02T02:27:05.935Z,8.24
2019-05-02T02:28:05.929Z,8.15
2019-05-02T02:29:07.845Z,8.24
2019-05-02T02:30:05.923Z,8.36
2019-05-02T02:31:07.959Z,8.30
2019-05-02T02:32:05.907Z,8.56
2019-05-02T02:33:07.409Z,8.51
2019-05-02T02:34:05.900Z,8.31
2019-05-02T02:35:10.068Z,8.38
2019-05-02T02:36:05.885Z,8.31
2019-05-02T02:38:05.878Z,8.36
2019-05-02T02:39:06.873Z,8.66
2019-05-02T02:40:05.866Z,8.48
2019-05-02T02:41:13.237Z,8.46
2019-05-02T02:42:05.858Z,8.31
2019-05-02T02:43:30.270Z,8.36
2019-05-02T02:44:05.842Z,8.38
2019-05-02T02:45:05.867Z,8.24
2019-05-02T02:46:05.833Z,8.27
2019-05-02T02:47:11.978Z,8.23
2019-05-02T02:48:05.818Z,8.33
2019-05-02T02:49:05.823Z,8.26
2019-05-02T02:50:05.813Z,8.24
2019-05-02T02:51:05.807Z,8.19
2019-05-02T02:52:06.939Z,8.23
2019-05-02T02:53:05.793Z,8.20
2019-05-02T02:54:06.076Z,8.27
2019-05-02T02:55:05.780Z,8.26
2019-05-02T02:56:05.782Z,8.13
2019-05-02T02:57:05.769Z,8.27
2019-05-02T02:58:06.532Z,8.28
2019-05-02T02:59:05.760Z,8.23
2019-05-02T03:00:08.340Z,8.24
2019-05-02T03:01:05.753Z,8.26
2019-05-02T03:02:09.930Z,8.20
2019-05-02T03:03:05.742Z,8.23
2019-05-02T03:04:09.322Z,8.18
2019-05-02T03:05:05.725Z,8.10
2019-05-02T03:06:08.030Z,8.27
2019-05-02T03:07:05.720Z,8.27
2019-05-02T03:08:07.242Z,8.12
2019-05-02T03:09:05.706Z,8.15
2019-05-02T03:10:06.752Z,8.27
2019-05-02T03:11:05.693Z,8.33
2019-05-02T03:12:05.690Z,8.26
2019-05-02T03:13:05.684Z,8.27
2019-05-02T03:14:08.956Z,8.34
2019-05-02T03:15:05.672Z,8.31
2019-05-02T03:16:06.897Z,8.27
2019-05-02T03:17:05.665Z,8.28
2019-05-02T03:18:05.656Z,8.36
2019-05-02T03:19:05.652Z,8.28
2019-05-02T03:20:05.649Z,8.31
2019-05-02T03:21:05.639Z,8.27
2019-05-02T03:22:05.638Z,8.27
2019-05-02T03:23:05.629Z,8.38
2019-05-02T03:24:06.044Z,8.37
2019-05-02T03:25:05.627Z,8.36
2019-05-02T03:26:08.153Z,8.34
2019-05-02T03:27:05.601Z,8.31
2019-05-02T03:28:17.830Z,8.31
2019-05-02T03:29:05.597Z,8.34
2019-05-02T03:30:05.590Z,8.16
2019-05-02T03:31:21.887Z,8.26
2019-05-02T03:32:16.164Z,8.33
2019-05-02T03:33:11.398Z,8.23
2019-05-02T03:34:05.568Z,8.30
2019-05-02T03:35:05.569Z,8.20
2019-05-02T03:36:05.559Z,8.24
2019-05-02T03:37:10.171Z,8.36
2019-05-02T03:38:05.551Z,8.37
2019-05-02T03:39:13.571Z,8.36
2019-05-02T03:40:05.532Z,8.37
2019-05-02T03:41:05.527Z,8.34
2019-05-02T03:42:05.549Z,8.37
2019-05-02T03:43:05.514Z,8.31
2019-05-02T03:44:11.196Z,8.33
2019-05-02T03:45:05.614Z,8.38
2019-05-02T03:46:05.497Z,8.36
2019-05-02T03:47:05.507Z,8.41
2019-05-02T03:48:05.487Z,8.38
2019-05-02T03:49:09.229Z,8.34
2019-05-02T03:50:09.014Z,8.34
2019-05-02T03:51:12.460Z,8.34
2019-05-02T03:52:05.995Z,8.34
2019-05-02T03:53:05.515Z,8.38
2019-05-02T03:54:07.513Z,8.56
2019-05-02T03:55:05.449Z,8.46
2019-05-02T03:56:11.259Z,8.48
2019-05-02T03:57:05.436Z,8.31
2019-05-02T03:58:12.839Z,8.36
2019-05-02T03:59:05.423Z,8.37
2019-05-02T04:00:05.421Z,8.46
2019-05-02T04:01:05.415Z,8.34
2019-05-02T04:02:05.410Z,8.49
2019-05-02T04:03:05.408Z,8.53
2019-05-02T04:04:05.394Z,8.52
2019-05-02T04:05:05.396Z,8.38
2019-05-02T04:06:05.390Z,8.44
2019-05-02T04:07:05.383Z,8.38
2019-05-02T04:08:05.381Z,8.46
2019-05-02T04:09:05.374Z,8.58
2019-05-02T04:10:05.367Z,8.53
2019-05-02T04:11:05.359Z,8.53
2019-05-02T04:12:05.351Z,8.52
2019-05-02T04:13:05.347Z,8.46
2019-05-02T04:14:14.907Z,8.51
2019-05-02T04:15:09.401Z,8.56
2019-05-02T04:16:14.301Z,8.58
2019-05-02T04:17:05.322Z,8.55
2019-05-02T04:18:08.592Z,8.56
2019-05-02T04:19:05.313Z,8.55
2019-05-02T04:20:09.471Z,8.53
2019-05-02T04:21:05.306Z,8.61
2019-05-02T04:22:08.455Z,8.56
2019-05-02T04:23:05.289Z,8.58
2019-05-02T04:24:13.423Z,8.76
2019-05-02T04:25:06.439Z,8.64
2019-05-02T04:26:06.744Z,8.76
2019-05-02T04:27:05.286Z,8.70
2019-05-02T04:28:05.855Z,8.79
2019-05-02T04:29:05.261Z,8.69
2019-05-02T04:30:11.167Z,8.58
2019-05-02T04:31:05.243Z,8.76
2019-05-02T04:32:11.782Z,8.89
2019-05-02T04:33:05.238Z,8.87
2019-05-02T04:34:13.578Z,8.82
2019-05-02T04:35:05.221Z,8.73
2019-05-02T04:36:13.755Z,8.71
2019-05-02T04:37:05.238Z,8.69
2019-05-02T04:38:12.153Z,8.66
2019-05-02T04:39:05.948Z,8.61
2019-05-02T04:40:09.119Z,8.63
2019-05-02T04:41:05.191Z,8.67
2019-05-02T04:42:12.119Z,8.84
2019-05-02T04:43:08.215Z,8.70
2019-05-02T04:44:05.182Z,8.66
2019-05-02T04:45:20.518Z,8.63
2019-05-02T04:46:09.295Z,8.76
2019-05-02T04:47:12.699Z,8.71
2019-05-02T04:48:08.171Z,8.76
2019-05-02T04:49:05.148Z,8.63
2019-05-02T04:50:07.647Z,8.74
2019-05-02T04:51:10.164Z,8.64
2019-05-02T04:52:10.396Z,8.69
2019-05-02T04:53:05.128Z,8.69
2019-05-02T04:54:05.123Z,8.63
2019-05-02T04:55:17.117Z,8.67
2019-05-02T04:56:10.051Z,8.63
2019-05-02T04:57:08.212Z,8.71
2019-05-02T04:58:08.137Z,8.66
2019-05-02T04:59:16.625Z,8.69
2019-05-02T05:00:08.639Z,8.73
2019-05-02T05:01:05.086Z,8.71
2019-05-02T05:02:05.075Z,8.73
2019-05-02T05:03:07.190Z,8.64
2019-05-02T05:04:05.061Z,8.66
2019-05-02T05:05:05.057Z,8.66
2019-05-02T05:06:08.044Z,8.69
2019-05-02T05:07:05.050Z,8.64
2019-05-02T05:08:07.268Z,8.73
2019-05-02T05:09:10.442Z,8.67
2019-05-02T05:10:05.034Z,8.78
2019-05-02T05:11:05.025Z,8.76
2019-05-02T05:12:07.043Z,8.71
2019-05-02T05:13:05.012Z,8.76
2019-05-02T05:14:05.005Z,8.74
2019-05-02T05:15:05.000Z,8.69
2019-05-02T05:16:08.624Z,8.78
2019-05-02T05:17:04.994Z,8.87
2019-05-02T05:18:10.396Z,8.94
2019-05-02T05:19:04.984Z,9.02
2019-05-02T05:20:10.601Z,8.89
2019-05-02T05:21:04.969Z,8.85
2019-05-02T05:22:06.495Z,8.82
2019-05-02T05:23:04.959Z,8.94
2019-05-02T05:24:04.955Z,8.92
2019-05-02T05:25:07.284Z,8.91
2019-05-02T05:26:07.129Z,8.97
2019-05-02T05:27:04.935Z,8.95
2019-05-02T05:28:06.132Z,9.00
2019-05-02T05:29:04.924Z,9.02
2019-05-02T05:30:11.333Z,9.04
2019-05-02T05:31:04.913Z,8.91
2019-05-02T05:32:07.860Z,8.82
2019-05-02T05:33:04.901Z,8.82
2019-05-02T05:34:04.896Z,8.94
2019-05-02T05:35:08.964Z,8.95
2019-05-02T05:36:04.889Z,8.87
2019-05-02T05:37:11.622Z,8.85
2019-05-02T05:38:04.873Z,8.87
2019-05-02T05:39:08.605Z,9.03
2019-05-02T05:40:04.869Z,8.97
2019-05-02T05:41:09.029Z,8.99
2019-05-02T05:42:04.855Z,9.11
2019-05-02T05:43:13.587Z,9.08
2019-05-02T05:44:04.844Z,8.97
2019-05-02T05:45:09.842Z,8.97
2019-05-02T05:46:10.615Z,9.13
2019-05-02T05:47:04.827Z,9.14
2019-05-02T05:48:04.826Z,9.31
2019-05-02T05:49:04.829Z,9.22
2019-05-02T05:50:04.815Z,9.11
2019-05-02T05:51:04.806Z,9.18
2019-05-02T05:52:04.804Z,9.18
2019-05-02T05:53:04.804Z,9.23
2019-05-02T05:54:04.789Z,9.39
2019-05-02T05:55:05.127Z,9.41
2019-05-02T05:56:04.779Z,9.36
2019-05-02T05:57:04.780Z,9.29
2019-05-02T05:58:12.310Z,9.28
2019-05-02T05:59:04.767Z,9.22
2019-05-02T06:00:11.458Z,9.23
2019-05-02T06:01:07.857Z,9.06
2019-05-02T06:02:05.383Z,9.21
2019-05-02T06:03:12.964Z,9.32
2019-05-02T06:04:04.745Z,9.36
2019-05-02T06:05:04.742Z,9.39
2019-05-02T06:06:04.732Z,9.43
2019-05-02T06:07:04.731Z,9.13
2019-05-02T06:08:04.727Z,9.32
2019-05-02T06:09:04.724Z,9.32
2019-05-02T06:10:07.736Z,9.41
2019-05-02T06:11:04.711Z,9.44
2019-05-02T06:12:04.707Z,9.25
2019-05-02T06:13:05.342Z,9.28
2019-05-02T06:14:04.693Z,9.39
2019-05-02T06:15:04.691Z,9.48
2019-05-02T06:16:04.685Z,9.31
2019-05-02T06:17:04.679Z,9.39
2019-05-02T06:18:05.019Z,9.39
2019-05-02T06:19:04.669Z,9.48
2019-05-02T06:20:04.666Z,9.51
2019-05-02T06:21:08.702Z,9.39
2019-05-02T06:22:04.650Z,9.32
2019-05-02T06:23:04.650Z,9.54
2019-05-02T06:24:04.647Z,9.73
2019-05-02T06:25:08.662Z,9.55
2019-05-02T06:26:07.980Z,9.55
2019-05-02T06:27:04.625Z,9.73
2019-05-02T06:28:05.466Z,9.66
2019-05-02T06:29:04.617Z,9.62
2019-05-02T06:30:04.617Z,9.69
2019-05-02T06:31:07.219Z,9.74
2019-05-02T06:32:04.604Z,9.66
2019-05-02T06:33:04.596Z,9.73
2019-05-02T06:34:07.038Z,9.51
2019-05-02T06:35:04.589Z,9.65
2019-05-02T06:36:04.584Z,9.44
2019-05-02T06:37:08.234Z,9.46
2019-05-02T06:38:04.573Z,9.69
2019-05-02T06:39:04.574Z,9.92
2019-05-02T06:40:08.132Z,10.09
2019-05-02T06:41:04.567Z,9.99
2019-05-02T06:42:04.559Z,10.07
2019-05-02T06:43:09.868Z,9.92
2019-05-02T06:44:04.550Z,9.91
2019-05-02T06:45:04.542Z,9.99
2019-05-02T06:46:15.436Z,10.05
2019-05-02T06:47:05.647Z,9.94
2019-05-02T06:48:04.533Z,9.79
2019-05-02T06:49:04.529Z,9.79
2019-05-02T06:50:04.525Z,9.83
2019-05-02T06:51:04.518Z,9.82
2019-05-02T06:52:04.512Z,9.79
2019-05-02T06:53:09.444Z,9.89
2019-05-02T06:54:04.500Z,10.07
2019-05-02T06:55:04.503Z,10.23
2019-05-02T06:56:08.045Z,10.40
2019-05-02T06:57:04.498Z,10.60
2019-05-02T06:58:08.054Z,10.31
2019-05-02T06:59:04.489Z,10.33
2019-05-02T07:00:06.490Z,10.37
2019-05-02T07:01:04.472Z,10.15
2019-05-02T07:02:04.474Z,10.41
2019-05-02T07:03:05.001Z,10.44
2019-05-02T07:04:04.585Z,10.34
2019-05-02T07:05:04.462Z,10.42
2019-05-02T07:06:07.409Z,10.54
2019-05-02T07:07:04.455Z,10.33
2019-05-02T07:08:06.562Z,10.13
2019-05-02T07:09:04.456Z,10.17
2019-05-02T07:10:07.232Z,10.46
2019-05-02T07:11:04.435Z,10.59
2019-05-02T07:12:04.429Z,10.46
2019-05-02T07:13:10.830Z,10.51
2019-05-02T07:14:12.866Z,10.90
2019-05-02T07:15:04.481Z,10.76
2019-05-02T07:16:04.418Z,10.17
2019-05-02T07:17:05.873Z,10.22
2019-05-02T07:18:05.481Z,10.41
2019-05-02T07:19:04.408Z,10.67
2019-05-02T07:20:05.363Z,10.99
2019-05-02T07:21:04.402Z,10.90
2019-05-02T07:22:04.643Z,11.25
2019-05-02T07:23:04.396Z,11.08
2019-05-02T07:24:04.389Z,11.32
2019-05-02T07:25:06.853Z,11.43
2019-05-02T07:26:04.384Z,11.36
2019-05-02T07:27:04.383Z,11.45
2019-05-02T07:28:04.553Z,10.76
2019-05-02T07:29:04.376Z,10.86
2019-05-02T07:30:04.372Z,10.44
2019-05-02T07:31:06.679Z,10.41
2019-05-02T07:32:04.366Z,10.99
2019-05-02T07:33:04.364Z,11.44
2019-05-02T07:34:08.091Z,11.65
2019-05-02T07:35:04.352Z,11.88
2019-05-02T07:36:04.354Z,11.36
2019-05-02T07:37:08.545Z,11.72
2019-05-02T07:38:04.346Z,12.45
2019-05-02T07:39:06.271Z,12.58
2019-05-02T07:40:04.341Z,12.17
2019-05-02T07:41:04.342Z,11.30
2019-05-02T07:42:05.981Z,11.22
2019-05-02T07:43:04.336Z,11.19
2019-05-02T07:44:04.516Z,11.60
2019-05-02T07:45:09.186Z,12.18
2019-05-02T07:46:04.322Z,12.25
2019-05-02T07:47:04.712Z,12.35
2019-05-02T07:48:04.337Z,11.33
2019-05-02T07:49:04.316Z,11.07
2019-05-02T07:50:05.271Z,11.07
2019-05-02T07:51:04.316Z,11.51
2019-05-02T07:52:04.312Z,12.17
2019-05-02T07:53:08.809Z,12.36
2019-05-02T07:54:04.307Z,12.27
2019-05-02T07:55:06.665Z,12.53
2019-05-02T07:56:04.304Z,12.79
2019-05-02T07:57:04.298Z,12.06
2019-05-02T07:58:06.842Z,11.65
2019-05-02T07:59:04.295Z,12.03
2019-05-02T08:00:04.296Z,12.15
2019-05-02T08:01:08.059Z,11.88
2019-05-02T08:02:04.283Z,11.90
2019-05-02T08:03:05.114Z,12.20
2019-05-02T08:04:04.873Z,12.00
2019-05-02T08:05:04.282Z,11.62
2019-05-02T08:06:04.275Z,12.22
2019-05-02T08:07:04.277Z,12.55
2019-05-02T08:08:04.277Z,12.06
2019-05-02T08:09:07.289Z,12.42
2019-05-02T08:10:04.271Z,12.35
2019-05-02T08:11:04.304Z,11.72
2019-05-02T08:12:04.272Z,11.81
2019-05-02T08:13:04.261Z,11.81
2019-05-02T08:14:04.265Z,12.03
2019-05-02T08:15:07.378Z,11.44
2019-05-02T08:16:04.258Z,11.97
2019-05-02T08:17:05.692Z,12.21
2019-05-02T08:18:04.252Z,12.37
2019-05-02T08:19:05.465Z,12.15
2019-05-02T08:20:05.778Z,12.28
2019-05-02T08:21:04.250Z,12.55
2019-05-02T08:22:12.969Z,12.39
2019-05-02T08:23:04.250Z,12.60
2019-05-02T08:24:04.247Z,13.01
2019-05-02T08:25:04.242Z,13.33
2019-05-02T08:26:04.242Z,13.57
2019-05-02T08:27:04.240Z,13.74
2019-05-02T08:28:04.821Z,13.18
2019-05-02T08:29:04.238Z,12.86
2019-05-02T08:30:05.629Z,13.08
2019-05-02T08:31:04.234Z,12.91
2019-05-02T08:32:04.227Z,12.80
2019-05-02T08:33:04.230Z,12.87
2019-05-02T08:34:05.225Z,12.78
2019-05-02T08:35:04.225Z,12.47
2019-05-02T08:36:04.227Z,12.76
2019-05-02T08:37:04.864Z,12.85
2019-05-02T08:38:04.234Z,12.70
2019-05-02T08:39:04.223Z,13.31
2019-05-02T08:40:05.489Z,14.15
2019-05-02T08:41:04.218Z,14.12
2019-05-02T08:42:04.214Z,13.79
2019-05-02T08:43:09.000Z,14.03
2019-05-02T08:44:04.223Z,13.18
2019-05-02T08:45:04.215Z,13.03
2019-05-02T08:46:04.208Z,13.50
2019-05-02T08:47:04.207Z,14.14
2019-05-02T08:48:05.101Z,14.10
2019-05-02T08:49:04.209Z,12.86
2019-05-02T08:50:04.209Z,13.77
2019-05-02T08:51:04.212Z,13.38
2019-05-02T08:52:04.211Z,13.22
2019-05-02T08:53:04.202Z,13.74
2019-05-02T08:54:04.204Z,13.72
2019-05-02T08:55:09.019Z,14.20
2019-05-02T08:56:04.209Z,13.97
2019-05-02T08:57:04.205Z,14.10
2019-05-02T08:58:06.770Z,13.92
2019-05-02T08:59:04.198Z,13.37
2019-05-02T09:00:04.203Z,12.86
2019-05-02T09:01:04.203Z,13.27
2019-05-02T09:02:04.198Z,13.47
2019-05-02T09:03:04.787Z,13.72
2019-05-02T09:04:04.201Z,14.14
2019-05-02T09:05:04.857Z,14.79
2019-05-02T09:06:06.004Z,14.66
2019-05-02T09:07:04.235Z,14.10
2019-05-02T09:08:04.195Z,14.04
2019-05-02T09:09:04.197Z,13.72
2019-05-02T09:10:05.661Z,13.72
2019-05-02T09:11:04.194Z,13.46
2019-05-02T09:12:12.185Z,13.49
2019-05-02T09:13:04.194Z,13.50
2019-05-02T09:14:04.197Z,13.25
2019-05-02T09:15:04.194Z,13.96
2019-05-02T09:16:05.925Z,14.26
2019-05-02T09:17:08.894Z,14.33
2019-05-02T09:18:04.192Z,14.20
2019-05-02T09:19:04.193Z,14.18
2019-05-02T09:20:10.645Z,14.26
2019-05-02T09:21:04.193Z,15.33
2019-05-02T09:22:07.696Z,15.65
2019-05-02T09:23:04.193Z,15.19
2019-05-02T09:24:08.385Z,14.51
2019-05-02T09:25:04.188Z,15.07
2019-05-02T09:26:04.190Z,15.36
2019-05-02T09:27:04.188Z,15.31
2019-05-02T09:28:04.195Z,15.43
2019-05-02T09:29:05.550Z,15.59
2019-05-02T09:30:04.200Z,15.90
2019-05-02T09:31:06.711Z,15.75
2019-05-02T09:32:04.191Z,15.82
2019-05-02T09:33:06.581Z,15.25
2019-05-02T09:34:04.193Z,14.70
2019-05-02T09:35:06.126Z,14.85
2019-05-02T09:36:04.197Z,15.36
2019-05-02T09:37:04.200Z,15.28
2019-05-02T09:38:04.202Z,15.17
2019-05-02T09:39:04.197Z,15.33
2019-05-02T09:40:07.011Z,15.64
2019-05-02T09:41:16.128Z,15.88
2019-05-02T09:42:06.599Z,16.02
2019-05-02T09:43:04.791Z,15.39
2019-05-02T09:44:04.199Z,16.01
2019-05-02T09:45:04.204Z,15.21
2019-05-02T09:46:07.308Z,15.58
2019-05-02T09:47:04.206Z,16.20
2019-05-02T09:48:07.742Z,15.73
2019-05-02T09:49:10.643Z,15.29
2019-05-02T09:50:04.205Z,15.52
2019-05-02T09:51:11.480Z,15.75
2019-05-02T09:52:04.214Z,15.86
2019-05-02T09:53:04.215Z,16.00
2019-05-02T09:54:06.293Z,16.38
2019-05-02T09:55:04.217Z,16.46
2019-05-02T09:56:04.214Z,15.86
2019-05-02T09:57:04.220Z,16.56
2019-05-02T09:58:04.219Z,17.27
2019-05-02T09:59:23.235Z,15.75
2019-05-02T10:00:04.224Z,16.00
2019-05-02T10:01:04.221Z,15.86
2019-05-02T10:02:04.223Z,16.31
2019-05-02T10:03:04.225Z,16.50
2019-05-02T10:04:04.231Z,15.70
2019-05-02T10:05:04.242Z,15.14
2019-05-02T10:06:08.368Z,16.28
2019-05-02T10:07:04.235Z,16.56
2019-05-02T10:08:06.834Z,17.04
2019-05-02T10:09:04.232Z,17.52
2019-05-02T10:10:06.527Z,16.76
2019-05-02T10:11:04.237Z,17.44
2019-05-02T10:12:04.241Z,16.99
2019-05-02T10:13:04.246Z,16.69
2019-05-02T10:14:04.255Z,17.78
2019-05-02T10:15:04.246Z,18.44
2019-05-02T10:16:04.249Z,19.00
2019-05-02T10:17:07.165Z,19.69
2019-05-02T10:18:10.607Z,18.78
2019-05-02T10:19:09.263Z,18.11
2019-05-02T10:20:04.299Z,17.51
2019-05-02T10:21:07.796Z,17.80
2019-05-02T10:22:04.275Z,19.09
2019-05-02T10:23:04.276Z,20.25
2019-05-02T10:24:04.281Z,18.75
2019-05-02T10:25:04.283Z,18.92
2019-05-02T10:26:04.306Z,19.39
2019-05-02T10:27:08.480Z,19.58
2019-05-02T10:28:04.296Z,19.26
2019-05-02T10:29:04.303Z,19.67
2019-05-02T10:30:11.848Z,19.95
2019-05-02T10:31:04.311Z,20.87
2019-05-02T10:32:07.484Z,20.10
2019-05-02T10:33:04.325Z,19.71
2019-05-02T10:34:08.404Z,19.79
2019-05-02T10:35:04.331Z,19.99
2019-05-02T10:36:04.344Z,19.58
2019-05-02T10:37:04.347Z,17.14
2019-05-02T10:38:04.353Z,18.35
2019-05-02T10:39:04.366Z,18.80
2019-05-02T10:40:07.830Z,19.31
2019-05-02T10:41:04.914Z,19.09
2019-05-02T10:42:04.379Z,18.74
2019-05-02T10:43:04.385Z,17.39
2019-05-02T10:44:04.393Z,17.85
2019-05-02T10:45:07.519Z,18.45
2019-05-02T10:46:04.399Z,17.67
2019-05-02T10:47:04.407Z,18.50
2019-05-02T10:48:04.416Z,20.19
2019-05-02T10:49:04.421Z,20.96
2019-05-02T10:50:04.428Z,21.66
2019-05-02T10:51:04.433Z,20.58
2019-05-02T10:52:04.436Z,19.15
2019-05-02T10:53:11.011Z,19.11
2019-05-02T10:54:04.451Z,18.35
2019-05-02T10:55:04.458Z,18.49
2019-05-02T10:56:04.467Z,19.02
2019-05-02T10:57:04.471Z,19.79
2019-05-02T10:58:04.477Z,18.90
2019-05-02T10:59:04.487Z,18.58
2019-05-02T11:00:04.488Z,19.26
2019-05-02T11:01:04.499Z,18.56
2019-05-02T11:02:04.501Z,17.71
2019-05-02T11:03:04.510Z,18.18
2019-05-02T11:04:04.511Z,19.85
2019-05-02T11:05:04.522Z,20.81
2019-05-02T11:06:07.573Z,20.59
2019-05-02T11:07:04.533Z,20.11
2019-05-02T11:08:06.192Z,21.37
2019-05-02T11:09:06.440Z,20.37
2019-05-02T11:10:06.846Z,19.49
2019-05-02T11:11:06.248Z,20.29
2019-05-02T11:12:04.569Z,21.35
2019-05-02T11:13:04.576Z,21.60
2019-05-02T11:14:05.832Z,22.11
2019-05-02T11:15:04.601Z,21.02
2019-05-02T11:16:04.609Z,21.33
2019-05-02T11:17:09.041Z,20.24
2019-05-02T11:18:04.619Z,20.77
2019-05-02T11:19:04.629Z,19.76
2019-05-02T11:20:04.645Z,20.22
2019-05-02T11:21:08.294Z,20.39
2019-05-02T11:22:04.665Z,20.81
2019-05-02T11:23:04.676Z,21.77
2019-05-02T11:24:04.691Z,22.47
2019-05-02T11:25:04.759Z,21.99
2019-05-02T11:26:04.699Z,21.46
2019-05-02T11:27:04.711Z,20.95
2019-05-02T11:28:07.107Z,21.61
2019-05-02T11:29:04.736Z,20.36
2019-05-02T11:30:04.745Z,20.11
2019-05-02T11:31:06.525Z,20.31
2019-05-02T11:32:04.760Z,20.96
2019-05-02T11:33:04.771Z,21.82
2019-05-02T11:34:04.777Z,23.68
2019-05-02T11:35:04.786Z,22.76
2019-05-02T11:36:04.795Z,22.39
2019-05-02T11:37:04.813Z,22.65
2019-05-02T11:38:05.026Z,20.78
2019-05-02T11:39:15.677Z,20.65
2019-05-02T11:40:06.639Z,22.13
2019-05-02T11:41:04.844Z,21.40
2019-05-02T11:42:04.859Z,21.15
2019-05-02T11:43:06.823Z,22.50
2019-05-02T11:44:04.878Z,20.74
2019-05-02T11:45:04.885Z,21.66
2019-05-02T11:46:07.309Z,21.98
2019-05-02T11:47:04.909Z,23.13
2019-05-02T11:48:09.623Z,22.20
2019-05-02T11:49:04.926Z,22.25
2019-05-02T11:50:04.938Z,21.82
2019-05-02T11:51:07.330Z,19.22
2019-05-02T11:52:04.965Z,20.96
2019-05-02T11:53:09.235Z,22.50
2019-05-02T11:54:09.157Z,22.70
2019-05-02T11:55:04.986Z,22.02
2019-05-02T11:56:07.510Z,21.91
2019-05-02T11:57:05.015Z,20.65
2019-05-02T11:58:08.338Z,20.29
2019-05-02T11:59:05.025Z,21.54
2019-05-02T12:00:08.834Z,22.44
2019-05-02T12:01:05.536Z,21.55
2019-05-02T12:02:09.318Z,20.00
2019-05-02T12:03:05.065Z,19.45
2019-05-02T12:04:07.621Z,19.88
2019-05-02T12:05:05.081Z,20.78
2019-05-02T12:06:06.624Z,19.59
2019-05-02T12:07:05.122Z,19.55
2019-05-02T12:08:07.868Z,20.24
2019-05-02T12:09:05.120Z,21.12
2019-05-02T12:10:05.143Z,21.12
2019-05-02T12:11:08.443Z,20.50
2019-05-02T12:12:05.141Z,20.84
2019-05-02T12:13:06.641Z,20.09
2019-05-02T12:14:05.161Z,20.75
2019-05-02T12:15:05.170Z,21.76
2019-05-02T12:16:05.176Z,22.60
2019-05-02T12:17:05.269Z,22.41
2019-05-02T12:18:05.191Z,22.35
2019-05-02T12:19:11.360Z,22.45
2019-05-02T12:20:05.230Z,22.59
2019-05-02T12:21:05.233Z,22.39
2019-05-02T12:22:07.170Z,22.87
2019-05-02T12:23:05.247Z,24.40
2019-05-02T12:24:05.284Z,21.60
2019-05-02T12:25:05.262Z,21.99
2019-05-02T12:26:05.325Z,22.45
2019-05-02T12:27:05.282Z,21.43
2019-05-02T12:28:05.292Z,22.53
2019-05-02T12:29:05.302Z,22.84
2019-05-02T12:30:05.307Z,22.90
2019-05-02T12:31:08.114Z,24.17
2019-05-02T12:32:05.328Z,25.11
2019-05-02T12:33:05.346Z,23.87
2019-05-02T12:34:05.352Z,24.47
2019-05-02T12:35:05.368Z,23.99
2019-05-02T12:36:05.405Z,24.13
2019-05-02T12:37:05.391Z,22.00
2019-05-02T12:38:05.396Z,22.63
2019-05-02T12:39:05.406Z,22.14
2019-05-02T12:40:05.425Z,20.80
2019-05-02T12:41:05.436Z,20.84
2019-05-02T12:42:05.794Z,22.02
2019-05-02T12:43:05.454Z,21.29
2019-05-02T12:44:05.463Z,21.54
2019-05-02T12:45:05.476Z,20.85
2019-05-02T12:46:05.482Z,20.60
2019-05-02T12:47:05.487Z,19.92
2019-05-02T12:48:05.496Z,19.44
2019-05-02T12:49:05.507Z,19.02
2019-05-02T12:50:05.510Z,18.20
2019-05-02T12:51:05.525Z,18.40
2019-05-02T12:52:05.525Z,18.50
2019-05-02T12:53:05.533Z,18.49
2019-05-02T12:54:05.544Z,18.44
2019-05-02T12:55:05.548Z,17.98
2019-05-02T12:56:05.556Z,17.85
2019-05-02T12:57:05.562Z,17.87
2019-05-02T12:58:05.566Z,17.85
2019-05-02T12:59:05.571Z,17.26
2019-05-02T13:00:05.570Z,17.31
2019-05-02T13:01:05.578Z,17.39
2019-05-02T13:02:05.580Z,17.24
2019-05-02T13:03:05.581Z,17.41
2019-05-02T13:04:05.584Z,17.39
2019-05-02T13:05:05.585Z,17.15
2019-05-02T13:06:05.719Z,17.31